sensor_id;sensor_type;location;lat;lon;timestamp;P1;durP1;ratioP1;P2;durP2;ratioP2
59233;SDS011;60776;51.702;7.462;2023-10-08T00:01:44;9.20;;;5.13;;
59233;SDS011;60776;51.702;7.462;2023-10-08T00:04:12;6.05;;;4.25;;
59233;SDS011;60776;51.702;7.462;2023-10-08T00:06:43;7.45;;;4.47;;
59233;SDS011;60776;51.702;7.462;2023-10-08T00:09:12;9.98;;;5.03;;
59233;SDS011;60776;51.702;7.462;2023-10-08T00:11:40;6.43;;;4.18;;
59233;SDS011;60776;51.702;7.462;2023-10-08T00:14:06;6.85;;;4.22;;
59233;SDS011;60776;51.702;7.462;2023-10-08T00:16:35;9.77;;;5.15;;
59233;SDS011;60776;51.702;7.462;2023-10-08T00:19:07;10.68;;;4.90;;
59233;SDS011;60776;51.702;7.462;2023-10-08T00:21:36;8.95;;;5.82;;
59233;SDS011;60776;51.702;7.462;2023-10-08T00:24:03;10.68;;;5.70;;
59233;SDS011;60776;51.702;7.462;2023-10-08T00:26:37;6.50;;;4.22;;
59233;SDS011;60776;51.702;7.462;2023-10-08T00:29:10;6.13;;;4.18;;
59233;SDS011;60776;51.702;7.462;2023-10-08T00:31:46;8.18;;;4.43;;
59233;SDS011;60776;51.702;7.462;2023-10-08T00:34:14;6.95;;;4.65;;
59233;SDS011;60776;51.702;7.462;2023-10-08T00:36:48;6.43;;;4.40;;
59233;SDS011;60776;51.702;7.462;2023-10-08T00:39:17;5.38;;;4.30;;
59233;SDS011;60776;51.702;7.462;2023-10-08T00:41:49;9.18;;;4.57;;
59233;SDS011;60776;51.702;7.462;2023-10-08T00:44:24;5.75;;;4.00;;
59233;SDS011;60776;51.702;7.462;2023-10-08T00:46:54;8.48;;;5.30;;
59233;SDS011;60776;51.702;7.462;2023-10-08T00:49:26;8.40;;;5.20;;
59233;SDS011;60776;51.702;7.462;2023-10-08T00:52:14;8.45;;;5.43;;
59233;SDS011;60776;51.702;7.462;2023-10-08T00:54:40;5.13;;;4.18;;
59233;SDS011;60776;51.702;7.462;2023-10-08T00:57:21;7.82;;;5.28;;
59233;SDS011;60776;51.702;7.462;2023-10-08T00:59:59;6.63;;;4.43;;
59233;SDS011;60776;51.702;7.462;2023-10-08T01:02:27;6.03;;;3.88;;
59233;SDS011;60776;51.702;7.462;2023-10-08T01:05:17;11.13;;;4.95;;
59233;SDS011;60776;51.702;7.462;2023-10-08T01:07:49;8.40;;;4.80;;
59233;SDS011;60776;51.702;7.462;2023-10-08T01:10:19;7.78;;;4.55;;
59233;SDS011;60776;51.702;7.462;2023-10-08T01:12:52;8.80;;;5.05;;
59233;SDS011;60776;51.702;7.462;2023-10-08T01:15:41;6.68;;;4.30;;
59233;SDS011;60776;51.702;7.462;2023-10-08T01:18:09;8.80;;;5.85;;
59233;SDS011;60776;51.702;7.462;2023-10-08T01:20:43;5.53;;;4.88;;
59233;SDS011;60776;51.702;7.462;2023-10-08T01:23:12;9.15;;;4.95;;
59233;SDS011;60776;51.702;7.462;2023-10-08T01:25:46;7.47;;;4.72;;
59233;SDS011;60776;51.702;7.462;2023-10-08T01:28:35;5.25;;;3.90;;
59233;SDS011;60776;51.702;7.462;2023-10-08T01:31:00;7.80;;;4.68;;
59233;SDS011;60776;51.702;7.462;2023-10-08T01:33:28;7.20;;;4.25;;
59233;SDS011;60776;51.702;7.462;2023-10-08T01:35:57;5.35;;;3.85;;
59233;SDS011;60776;51.702;7.462;2023-10-08T01:38:31;9.80;;;5.18;;
59233;SDS011;60776;51.702;7.462;2023-10-08T01:41:00;6.90;;;4.07;;
59233;SDS011;60776;51.702;7.462;2023-10-08T01:43:30;7.47;;;4.82;;
59233;SDS011;60776;51.702;7.462;2023-10-08T01:45:56;6.78;;;4.40;;
59233;SDS011;60776;51.702;7.462;2023-10-08T01:48:24;7.68;;;4.85;;
59233;SDS011;60776;51.702;7.462;2023-10-08T01:51:02;7.88;;;4.18;;
59233;SDS011;60776;51.702;7.462;2023-10-08T01:53:36;7.32;;;4.30;;
59233;SDS011;60776;51.702;7.462;2023-10-08T01:56:15;8.45;;;4.90;;
59233;SDS011;60776;51.702;7.462;2023-10-08T01:58:45;6.05;;;4.60;;
59233;SDS011;60776;51.702;7.462;2023-10-08T02:01:19;9.98;;;5.75;;
59233;SDS011;60776;51.702;7.462;2023-10-08T02:03:47;6.50;;;4.30;;
59233;SDS011;60776;51.702;7.462;2023-10-08T02:06:13;8.80;;;5.32;;
59233;SDS011;60776;51.702;7.462;2023-10-08T02:08:39;6.38;;;4.10;;
59233;SDS011;60776;51.702;7.462;2023-10-08T02:11:04;6.90;;;4.70;;
59233;SDS011;60776;51.702;7.462;2023-10-08T02:13:41;8.20;;;4.47;;
59233;SDS011;60776;51.702;7.462;2023-10-08T02:16:15;9.05;;;5.03;;
59233;SDS011;60776;51.702;7.462;2023-10-08T02:18:43;6.90;;;4.53;;
59233;SDS011;60776;51.702;7.462;2023-10-08T02:21:16;9.95;;;5.50;;
59233;SDS011;60776;51.702;7.462;2023-10-08T02:23:43;9.27;;;5.55;;
59233;SDS011;60776;51.702;7.462;2023-10-08T02:26:18;10.90;;;6.03;;
59233;SDS011;60776;51.702;7.462;2023-10-08T02:28:47;8.95;;;5.63;;
59233;SDS011;60776;51.702;7.462;2023-10-08T02:31:16;7.38;;;4.72;;
59233;SDS011;60776;51.702;7.462;2023-10-08T02:33:52;9.55;;;5.53;;
59233;SDS011;60776;51.702;7.462;2023-10-08T02:36:18;5.40;;;4.10;;
59233;SDS011;60776;51.702;7.462;2023-10-08T02:38:54;5.75;;;4.35;;
59233;SDS011;60776;51.702;7.462;2023-10-08T02:41:22;5.85;;;3.80;;
59233;SDS011;60776;51.702;7.462;2023-10-08T02:43:58;6.20;;;4.20;;
59233;SDS011;60776;51.702;7.462;2023-10-08T02:46:30;8.75;;;5.10;;
59233;SDS011;60776;51.702;7.462;2023-10-08T02:48:58;8.63;;;4.97;;
59233;SDS011;60776;51.702;7.462;2023-10-08T02:51:23;7.32;;;4.80;;
59233;SDS011;60776;51.702;7.462;2023-10-08T02:53:54;6.95;;;4.70;;
59233;SDS011;60776;51.702;7.462;2023-10-08T02:56:19;10.30;;;4.90;;
59233;SDS011;60776;51.702;7.462;2023-10-08T02:58:47;7.82;;;4.78;;
59233;SDS011;60776;51.702;7.462;2023-10-08T03:01:13;7.60;;;4.88;;
59233;SDS011;60776;51.702;7.462;2023-10-08T03:03:40;9.63;;;4.78;;
59233;SDS011;60776;51.702;7.462;2023-10-08T03:06:07;8.15;;;4.45;;
59233;SDS011;60776;51.702;7.462;2023-10-08T03:08:39;9.50;;;5.10;;
59233;SDS011;60776;51.702;7.462;2023-10-08T03:11:08;8.75;;;4.78;;
59233;SDS011;60776;51.702;7.462;2023-10-08T03:13:45;7.43;;;4.38;;
59233;SDS011;60776;51.702;7.462;2023-10-08T03:16:14;10.52;;;5.10;;
59233;SDS011;60776;51.702;7.462;2023-10-08T03:18:49;6.47;;;4.95;;
59233;SDS011;60776;51.702;7.462;2023-10-08T03:21:17;8.23;;;5.30;;
59233;SDS011;60776;51.702;7.462;2023-10-08T03:23:47;13.15;;;6.45;;
59233;SDS011;60776;51.702;7.462;2023-10-08T03:26:13;6.97;;;5.18;;
59233;SDS011;60776;51.702;7.462;2023-10-08T03:28:56;7.70;;;5.90;;
59233;SDS011;60776;51.702;7.462;2023-10-08T03:31:25;9.88;;;5.50;;
59233;SDS011;60776;51.702;7.462;2023-10-08T03:34:10;11.90;;;6.35;;
59233;SDS011;60776;51.702;7.462;2023-10-08T03:36:40;6.93;;;4.47;;
59233;SDS011;60776;51.702;7.462;2023-10-08T03:39:13;6.00;;;3.88;;
59233;SDS011;60776;51.702;7.462;2023-10-08T03:41:42;9.80;;;4.93;;
59233;SDS011;60776;51.702;7.462;2023-10-08T03:44:17;8.02;;;5.10;;
59233;SDS011;60776;51.702;7.462;2023-10-08T03:46:43;10.27;;;5.93;;
59233;SDS011;60776;51.702;7.462;2023-10-08T03:49:11;7.93;;;4.78;;
59233;SDS011;60776;51.702;7.462;2023-10-08T03:51:50;10.63;;;5.03;;
59233;SDS011;60776;51.702;7.462;2023-10-08T03:54:20;11.18;;;6.28;;
59233;SDS011;60776;51.702;7.462;2023-10-08T03:56:58;7.22;;;5.05;;
59233;SDS011;60776;51.702;7.462;2023-10-08T03:59:25;10.18;;;5.20;;
59233;SDS011;60776;51.702;7.462;2023-10-08T04:02:00;8.55;;;5.03;;
59233;SDS011;60776;51.702;7.462;2023-10-08T04:04:43;7.95;;;5.10;;
59233;SDS011;60776;51.702;7.462;2023-10-08T04:07:28;8.57;;;4.60;;
59233;SDS011;60776;51.702;7.462;2023-10-08T04:10:28;9.10;;;5.07;;
59233;SDS011;60776;51.702;7.462;2023-10-08T04:13:05;10.77;;;6.03;;
59233;SDS011;60776;51.702;7.462;2023-10-08T04:15:47;6.95;;;4.80;;
59233;SDS011;60776;51.702;7.462;2023-10-08T04:18:12;10.30;;;5.43;;
59233;SDS011;60776;51.702;7.462;2023-10-08T04:20:48;9.98;;;5.35;;
59233;SDS011;60776;51.702;7.462;2023-10-08T04:23:53;8.70;;;5.70;;
59233;SDS011;60776;51.702;7.462;2023-10-08T04:26:22;9.75;;;5.35;;
59233;SDS011;60776;51.702;7.462;2023-10-08T04:28:54;9.23;;;5.32;;
59233;SDS011;60776;51.702;7.462;2023-10-08T04:31:24;9.70;;;6.20;;
59233;SDS011;60776;51.702;7.462;2023-10-08T04:33:55;8.82;;;5.55;;
59233;SDS011;60776;51.702;7.462;2023-10-08T04:36:28;7.55;;;5.32;;
59233;SDS011;60776;51.702;7.462;2023-10-08T04:38:53;6.65;;;5.88;;
59233;SDS011;60776;51.702;7.462;2023-10-08T04:41:38;10.25;;;6.40;;
59233;SDS011;60776;51.702;7.462;2023-10-08T04:44:17;6.70;;;5.05;;
59233;SDS011;60776;51.702;7.462;2023-10-08T04:46:45;7.70;;;4.75;;
59233;SDS011;60776;51.702;7.462;2023-10-08T04:49:21;7.85;;;4.95;;
59233;SDS011;60776;51.702;7.462;2023-10-08T04:52:02;6.45;;;4.95;;
59233;SDS011;60776;51.702;7.462;2023-10-08T04:54:39;5.93;;;4.20;;
59233;SDS011;60776;51.702;7.462;2023-10-08T04:57:11;5.10;;;3.15;;
59233;SDS011;60776;51.702;7.462;2023-10-08T04:59:43;4.43;;;2.42;;
59233;SDS011;60776;51.702;7.462;2023-10-08T05:02:11;3.60;;;2.15;;
59233;SDS011;60776;51.702;7.462;2023-10-08T05:04:43;3.25;;;1.95;;
59233;SDS011;60776;51.702;7.462;2023-10-08T05:07:18;1.45;;;1.35;;
59233;SDS011;60776;51.702;7.462;2023-10-08T05:10:03;1.50;;;1.33;;
59233;SDS011;60776;51.702;7.462;2023-10-08T05:12:29;1.90;;;1.70;;
59233;SDS011;60776;51.702;7.462;2023-10-08T05:14:57;1.85;;;1.75;;
59233;SDS011;60776;51.702;7.462;2023-10-08T05:17:42;1.80;;;1.70;;
59233;SDS011;60776;51.702;7.462;2023-10-08T05:20:32;1.42;;;1.30;;
59233;SDS011;60776;51.702;7.462;2023-10-08T05:23:24;1.70;;;1.60;;
59233;SDS011;60776;51.702;7.462;2023-10-08T05:25:51;3.00;;;2.25;;
59233;SDS011;60776;51.702;7.462;2023-10-08T05:28:26;5.05;;;2.38;;
59233;SDS011;60776;51.702;7.462;2023-10-08T05:30:54;3.88;;;2.10;;
59233;SDS011;60776;51.702;7.462;2023-10-08T05:33:41;4.80;;;1.80;;
59233;SDS011;60776;51.702;7.462;2023-10-08T05:36:26;3.80;;;1.70;;
59233;SDS011;60776;51.702;7.462;2023-10-08T05:39:10;2.28;;;1.50;;
59233;SDS011;60776;51.702;7.462;2023-10-08T05:42:04;2.95;;;1.10;;
59233;SDS011;60776;51.702;7.462;2023-10-08T05:44:56;3.30;;;1.75;;
59233;SDS011;60776;51.702;7.462;2023-10-08T05:47:34;2.00;;;1.50;;
59233;SDS011;60776;51.702;7.462;2023-10-08T05:50:01;3.17;;;1.23;;
59233;SDS011;60776;51.702;7.462;2023-10-08T05:52:43;1.88;;;1.15;;
59233;SDS011;60776;51.702;7.462;2023-10-08T05:55:18;2.60;;;1.20;;
59233;SDS011;60776;51.702;7.462;2023-10-08T05:57:54;4.28;;;1.00;;
59233;SDS011;60776;51.702;7.462;2023-10-08T06:00:43;4.00;;;1.50;;
59233;SDS011;60776;51.702;7.462;2023-10-08T06:03:15;3.25;;;0.95;;
59233;SDS011;60776;51.702;7.462;2023-10-08T06:06:05;3.45;;;1.17;;
59233;SDS011;60776;51.702;7.462;2023-10-08T06:08:51;1.73;;;1.15;;
59233;SDS011;60776;51.702;7.462;2023-10-08T06:11:37;3.35;;;1.20;;
59233;SDS011;60776;51.702;7.462;2023-10-08T06:14:21;2.65;;;0.90;;
59233;SDS011;60776;51.702;7.462;2023-10-08T06:17:07;2.67;;;0.80;;
59233;SDS011;60776;51.702;7.462;2023-10-08T06:19:49;3.45;;;0.73;;
59233;SDS011;60776;51.702;7.462;2023-10-08T06:22:17;6.00;;;0.90;;
59233;SDS011;60776;51.702;7.462;2023-10-08T06:24:44;2.28;;;0.90;;
59233;SDS011;60776;51.702;7.462;2023-10-08T06:27:12;1.52;;;0.80;;
59233;SDS011;60776;51.702;7.462;2023-10-08T06:29:44;3.70;;;1.00;;
59233;SDS011;60776;51.702;7.462;2023-10-08T06:32:17;3.20;;;1.00;;
59233;SDS011;60776;51.702;7.462;2023-10-08T06:34:47;2.03;;;0.90;;
59233;SDS011;60776;51.702;7.462;2023-10-08T06:37:12;1.42;;;1.00;;
59233;SDS011;60776;51.702;7.462;2023-10-08T06:39:40;0.70;;;0.70;;
59233;SDS011;60776;51.702;7.462;2023-10-08T06:42:12;1.73;;;1.00;;
59233;SDS011;60776;51.702;7.462;2023-10-08T06:44:42;1.05;;;0.90;;
59233;SDS011;60776;51.702;7.462;2023-10-08T06:47:11;0.93;;;0.93;;
59233;SDS011;60776;51.702;7.462;2023-10-08T06:49:40;0.73;;;0.73;;
59233;SDS011;60776;51.702;7.462;2023-10-08T06:52:11;1.23;;;1.13;;
59233;SDS011;60776;51.702;7.462;2023-10-08T06:54:47;1.30;;;1.20;;
59233;SDS011;60776;51.702;7.462;2023-10-08T06:57:15;2.05;;;1.00;;
59233;SDS011;60776;51.702;7.462;2023-10-08T06:59:45;1.40;;;1.30;;
59233;SDS011;60776;51.702;7.462;2023-10-08T07:02:11;1.30;;;1.30;;
59233;SDS011;60776;51.702;7.462;2023-10-08T07:04:36;1.38;;;1.38;;
59233;SDS011;60776;51.702;7.462;2023-10-08T07:07:02;1.50;;;1.40;;
59233;SDS011;60776;51.702;7.462;2023-10-08T07:09:36;1.20;;;1.10;;
59233;SDS011;60776;51.702;7.462;2023-10-08T07:12:05;1.15;;;1.05;;
59233;SDS011;60776;51.702;7.462;2023-10-08T07:14:39;1.30;;;1.20;;
59233;SDS011;60776;51.702;7.462;2023-10-08T07:17:06;1.10;;;1.10;;
59233;SDS011;60776;51.702;7.462;2023-10-08T07:19:44;1.10;;;1.10;;
59233;SDS011;60776;51.702;7.462;2023-10-08T07:22:15;1.50;;;1.40;;
59233;SDS011;60776;51.702;7.462;2023-10-08T07:24:47;1.55;;;1.45;;
59233;SDS011;60776;51.702;7.462;2023-10-08T07:27:15;1.02;;;1.02;;
59233;SDS011;60776;51.702;7.462;2023-10-08T07:29:49;1.25;;;1.15;;
59233;SDS011;60776;51.702;7.462;2023-10-08T07:32:17;0.63;;;0.63;;
59233;SDS011;60776;51.702;7.462;2023-10-08T07:34:46;0.60;;;0.60;;
59233;SDS011;60776;51.702;7.462;2023-10-08T07:37:22;0.70;;;0.70;;
59233;SDS011;60776;51.702;7.462;2023-10-08T07:39:56;0.80;;;0.80;;
59233;SDS011;60776;51.702;7.462;2023-10-08T07:42:23;1.13;;;0.90;;
59233;SDS011;60776;51.702;7.462;2023-10-08T07:44:57;0.77;;;0.60;;
59233;SDS011;60776;51.702;7.462;2023-10-08T07:47:32;1.38;;;0.75;;
59233;SDS011;60776;51.702;7.462;2023-10-08T07:49:58;1.05;;;0.82;;
59233;SDS011;60776;51.702;7.462;2023-10-08T07:52:36;1.42;;;0.90;;
59233;SDS011;60776;51.702;7.462;2023-10-08T07:55:02;3.30;;;1.27;;
59233;SDS011;60776;51.702;7.462;2023-10-08T07:57:33;4.18;;;1.25;;
59233;SDS011;60776;51.702;7.462;2023-10-08T07:59:59;3.30;;;1.10;;
59233;SDS011;60776;51.702;7.462;2023-10-08T08:02:47;6.03;;;1.40;;
59233;SDS011;60776;51.702;7.462;2023-10-08T08:05:28;2.25;;;1.00;;
59233;SDS011;60776;51.702;7.462;2023-10-08T08:07:57;3.47;;;1.05;;
59233;SDS011;60776;51.702;7.462;2023-10-08T08:10:30;6.95;;;1.38;;
59233;SDS011;60776;51.702;7.462;2023-10-08T08:13:02;4.85;;;1.30;;
59233;SDS011;60776;51.702;7.462;2023-10-08T08:15:31;5.10;;;1.48;;
59233;SDS011;60776;51.702;7.462;2023-10-08T08:18:05;5.30;;;2.33;;
59233;SDS011;60776;51.702;7.462;2023-10-08T08:20:34;11.93;;;2.80;;
59233;SDS011;60776;51.702;7.462;2023-10-08T08:23:06;7.40;;;3.00;;
59233;SDS011;60776;51.702;7.462;2023-10-08T08:25:38;7.07;;;2.70;;
59233;SDS011;60776;51.702;7.462;2023-10-08T08:28:28;7.25;;;3.35;;
59233;SDS011;60776;51.702;7.462;2023-10-08T08:30:54;6.05;;;2.80;;
59233;SDS011;60776;51.702;7.462;2023-10-08T08:33:20;10.02;;;3.70;;
59233;SDS011;60776;51.702;7.462;2023-10-08T08:36:00;5.43;;;2.50;;
59233;SDS011;60776;51.702;7.462;2023-10-08T08:38:29;8.63;;;3.08;;
59233;SDS011;60776;51.702;7.462;2023-10-08T08:41:04;6.18;;;2.42;;
59233;SDS011;60776;51.702;7.462;2023-10-08T08:43:32;7.38;;;2.63;;
59233;SDS011;60776;51.702;7.462;2023-10-08T08:46:00;5.78;;;2.40;;
59233;SDS011;60776;51.702;7.462;2023-10-08T08:48:35;5.30;;;1.42;;
59233;SDS011;60776;51.702;7.462;2023-10-08T08:51:06;5.07;;;1.58;;
59233;SDS011;60776;51.702;7.462;2023-10-08T08:53:39;4.93;;;1.60;;
59233;SDS011;60776;51.702;7.462;2023-10-08T08:56:08;6.20;;;1.60;;
59233;SDS011;60776;51.702;7.462;2023-10-08T08:58:42;3.17;;;1.27;;
59233;SDS011;60776;51.702;7.462;2023-10-08T09:01:12;4.43;;;1.67;;
59233;SDS011;60776;51.702;7.462;2023-10-08T09:03:42;5.95;;;1.60;;
59233;SDS011;60776;51.702;7.462;2023-10-08T09:06:11;3.30;;;1.40;;
59233;SDS011;60776;51.702;7.462;2023-10-08T09:08:38;3.90;;;1.55;;
59233;SDS011;60776;51.702;7.462;2023-10-08T09:11:17;3.60;;;1.20;;
59233;SDS011;60776;51.702;7.462;2023-10-08T09:13:50;5.55;;;1.60;;
59233;SDS011;60776;51.702;7.462;2023-10-08T09:16:18;5.07;;;1.70;;
59233;SDS011;60776;51.702;7.462;2023-10-08T09:18:44;5.57;;;1.73;;
59233;SDS011;60776;51.702;7.462;2023-10-08T09:21:22;6.95;;;2.47;;
59233;SDS011;60776;51.702;7.462;2023-10-08T09:23:53;6.05;;;2.72;;
59233;SDS011;60776;51.702;7.462;2023-10-08T09:26:25;4.22;;;2.53;;
59233;SDS011;60776;51.702;7.462;2023-10-08T09:28:57;5.97;;;2.95;;
59233;SDS011;60776;51.702;7.462;2023-10-08T09:31:26;5.57;;;3.15;;
59233;SDS011;60776;51.702;7.462;2023-10-08T09:34:00;4.20;;;2.60;;
59233;SDS011;60776;51.702;7.462;2023-10-08T09:36:28;3.50;;;2.95;;
59233;SDS011;60776;51.702;7.462;2023-10-08T09:38:59;3.45;;;2.33;;
59233;SDS011;60776;51.702;7.462;2023-10-08T09:41:33;6.32;;;2.60;;
59233;SDS011;60776;51.702;7.462;2023-10-08T09:43:59;3.95;;;2.58;;
59233;SDS011;60776;51.702;7.462;2023-10-08T09:46:36;7.00;;;2.80;;
59233;SDS011;60776;51.702;7.462;2023-10-08T09:49:11;7.10;;;2.30;;
59233;SDS011;60776;51.702;7.462;2023-10-08T09:51:39;4.97;;;2.00;;
59233;SDS011;60776;51.702;7.462;2023-10-08T09:56:42;4.10;;;1.85;;
59233;SDS011;60776;51.702;7.462;2023-10-08T09:59:12;4.20;;;1.95;;
59233;SDS011;60776;51.702;7.462;2023-10-08T10:01:47;4.78;;;1.75;;
59233;SDS011;60776;51.702;7.462;2023-10-08T10:04:22;3.60;;;1.70;;
59233;SDS011;60776;51.702;7.462;2023-10-08T10:07:04;2.85;;;1.33;;
59233;SDS011;60776;51.702;7.462;2023-10-08T10:09:37;3.75;;;1.30;;
59233;SDS011;60776;51.702;7.462;2023-10-08T10:12:06;4.88;;;1.77;;
59233;SDS011;60776;51.702;7.462;2023-10-08T10:14:41;3.38;;;1.30;;
59233;SDS011;60776;51.702;7.462;2023-10-08T10:17:29;3.78;;;1.30;;
59233;SDS011;60776;51.702;7.462;2023-10-08T10:22:38;3.25;;;1.27;;
59233;SDS011;60776;51.702;7.462;2023-10-08T10:25:07;4.95;;;1.48;;
59233;SDS011;60776;51.702;7.462;2023-10-08T10:28:27;4.18;;;1.40;;
59233;SDS011;60776;51.702;7.462;2023-10-08T10:30:33;3.45;;;1.50;;
59233;SDS011;60776;51.702;7.462;2023-10-08T10:33:02;4.93;;;1.45;;
59233;SDS011;60776;51.702;7.462;2023-10-08T10:35:30;2.80;;;1.10;;
59233;SDS011;60776;51.702;7.462;2023-10-08T10:37:58;3.03;;;1.20;;
59233;SDS011;60776;51.702;7.462;2023-10-08T10:40:28;5.38;;;1.45;;
59233;SDS011;60776;51.702;7.462;2023-10-08T10:43:04;2.92;;;1.38;;
59233;SDS011;60776;51.702;7.462;2023-10-08T10:45:32;3.70;;;1.15;;
59233;SDS011;60776;51.702;7.462;2023-10-08T10:48:05;2.13;;;1.08;;
59233;SDS011;60776;51.702;7.462;2023-10-08T10:50:57;6.72;;;1.60;;
59233;SDS011;60776;51.702;7.462;2023-10-08T10:53:34;5.43;;;1.33;;
59233;SDS011;60776;51.702;7.462;2023-10-08T10:56:37;3.95;;;1.45;;
59233;SDS011;60776;51.702;7.462;2023-10-08T10:59:07;4.80;;;1.52;;
59233;SDS011;60776;51.702;7.462;2023-10-08T11:02:11;5.05;;;1.40;;
59233;SDS011;60776;51.702;7.462;2023-10-08T11:05:13;4.90;;;1.40;;
59233;SDS011;60776;51.702;7.462;2023-10-08T11:07:45;3.67;;;1.27;;
59233;SDS011;60776;51.702;7.462;2023-10-08T11:10:14;4.55;;;1.25;;
59233;SDS011;60776;51.702;7.462;2023-10-08T11:12:43;5.60;;;1.55;;
59233;SDS011;60776;51.702;7.462;2023-10-08T11:15:14;3.47;;;1.20;;
59233;SDS011;60776;51.702;7.462;2023-10-08T11:17:42;5.43;;;2.45;;
59233;SDS011;60776;51.702;7.462;2023-10-08T11:20:25;2.75;;;0.98;;
59233;SDS011;60776;51.702;7.462;2023-10-08T11:23:05;1.95;;;1.10;;
59233;SDS011;60776;51.702;7.462;2023-10-08T11:25:56;2.88;;;1.15;;
59233;SDS011;60776;51.702;7.462;2023-10-08T11:28:27;3.20;;;1.25;;
59233;SDS011;60776;51.702;7.462;2023-10-08T11:30:58;3.83;;;1.23;;
59233;SDS011;60776;51.702;7.462;2023-10-08T11:36:27;4.95;;;1.42;;
59233;SDS011;60776;51.702;7.462;2023-10-08T11:39:08;6.22;;;1.48;;
59233;SDS011;60776;51.702;7.462;2023-10-08T11:45:04;3.67;;;1.27;;
59233;SDS011;60776;51.702;7.462;2023-10-08T11:47:49;3.17;;;1.15;;
59233;SDS011;60776;51.702;7.462;2023-10-08T11:50:24;3.35;;;1.30;;
59233;SDS011;60776;51.702;7.462;2023-10-08T11:52:59;3.78;;;1.23;;
59233;SDS011;60776;51.702;7.462;2023-10-08T11:55:30;3.53;;;1.00;;
59233;SDS011;60776;51.702;7.462;2023-10-08T11:58:00;2.90;;;1.08;;
59233;SDS011;60776;51.702;7.462;2023-10-08T12:00:35;1.70;;;1.00;;
59233;SDS011;60776;51.702;7.462;2023-10-08T12:03:11;2.65;;;1.23;;
59233;SDS011;60776;51.702;7.462;2023-10-08T12:05:38;1.65;;;1.13;;
59233;SDS011;60776;51.702;7.462;2023-10-08T12:08:12;3.08;;;1.30;;
59233;SDS011;60776;51.702;7.462;2023-10-08T12:10:41;5.32;;;1.30;;
59233;SDS011;60776;51.702;7.462;2023-10-08T12:13:11;3.60;;;1.45;;
59233;SDS011;60776;51.702;7.462;2023-10-08T12:15:37;2.20;;;0.98;;
59233;SDS011;60776;51.702;7.462;2023-10-08T12:18:03;2.65;;;1.10;;
59233;SDS011;60776;51.702;7.462;2023-10-08T12:21:05;4.28;;;1.30;;
59233;SDS011;60776;51.702;7.462;2023-10-08T12:23:38;3.70;;;1.10;;
59233;SDS011;60776;51.702;7.462;2023-10-08T12:26:04;3.22;;;1.17;;
59233;SDS011;60776;51.702;7.462;2023-10-08T12:28:32;2.63;;;1.17;;
59233;SDS011;60776;51.702;7.462;2023-10-08T12:30:59;3.17;;;1.23;;
59233;SDS011;60776;51.702;7.462;2023-10-08T12:33:25;2.13;;;1.10;;
59233;SDS011;60776;51.702;7.462;2023-10-08T12:35:57;2.80;;;1.30;;
59233;SDS011;60776;51.702;7.462;2023-10-08T12:38:35;2.20;;;0.80;;
59233;SDS011;60776;51.702;7.462;2023-10-08T12:41:02;2.90;;;1.30;;
59233;SDS011;60776;51.702;7.462;2023-10-08T12:43:36;3.15;;;1.30;;
59233;SDS011;60776;51.702;7.462;2023-10-08T12:46:06;2.63;;;1.05;;
59233;SDS011;60776;51.702;7.462;2023-10-08T12:48:36;2.08;;;1.10;;
59233;SDS011;60776;51.702;7.462;2023-10-08T12:51:10;2.00;;;1.17;;
59233;SDS011;60776;51.702;7.462;2023-10-08T12:53:39;3.55;;;1.10;;
59233;SDS011;60776;51.702;7.462;2023-10-08T12:56:14;4.53;;;1.42;;
59233;SDS011;60776;51.702;7.462;2023-10-08T12:58:42;4.03;;;1.30;;
59233;SDS011;60776;51.702;7.462;2023-10-08T13:01:13;3.22;;;1.20;;
59233;SDS011;60776;51.702;7.462;2023-10-08T13:03:45;3.08;;;1.08;;
59233;SDS011;60776;51.702;7.462;2023-10-08T13:06:18;2.40;;;1.05;;
59233;SDS011;60776;51.702;7.462;2023-10-08T13:08:50;2.80;;;1.30;;
59233;SDS011;60776;51.702;7.462;2023-10-08T13:11:20;4.18;;;1.20;;
59233;SDS011;60776;51.702;7.462;2023-10-08T13:13:50;3.30;;;1.30;;
59233;SDS011;60776;51.702;7.462;2023-10-08T13:16:24;5.68;;;1.17;;
59233;SDS011;60776;51.702;7.462;2023-10-08T13:18:53;2.13;;;1.00;;
59233;SDS011;60776;51.702;7.462;2023-10-08T13:21:24;2.45;;;1.00;;
59233;SDS011;60776;51.702;7.462;2023-10-08T13:23:59;2.25;;;0.90;;
59233;SDS011;60776;51.702;7.462;2023-10-08T13:26:27;2.13;;;1.00;;
59233;SDS011;60776;51.702;7.462;2023-10-08T13:28:59;3.75;;;1.00;;
59233;SDS011;60776;51.702;7.462;2023-10-08T13:31:28;2.97;;;1.10;;
59233;SDS011;60776;51.702;7.462;2023-10-08T13:34:01;1.75;;;0.98;;
59233;SDS011;60776;51.702;7.462;2023-10-08T13:36:33;1.83;;;1.00;;
59233;SDS011;60776;51.702;7.462;2023-10-08T13:39:06;4.88;;;1.27;;
59233;SDS011;60776;51.702;7.462;2023-10-08T13:41:36;3.25;;;1.10;;
59233;SDS011;60776;51.702;7.462;2023-10-08T13:44:03;3.22;;;0.98;;
59233;SDS011;60776;51.702;7.462;2023-10-08T13:46:35;3.22;;;1.10;;
59233;SDS011;60776;51.702;7.462;2023-10-08T13:49:10;2.40;;;1.17;;
59233;SDS011;60776;51.702;7.462;2023-10-08T13:51:44;1.40;;;0.85;;
59233;SDS011;60776;51.702;7.462;2023-10-08T13:54:11;3.85;;;1.20;;
59233;SDS011;60776;51.702;7.462;2023-10-08T13:56:37;3.92;;;1.23;;
59233;SDS011;60776;51.702;7.462;2023-10-08T13:59:03;3.75;;;1.40;;
59233;SDS011;60776;51.702;7.462;2023-10-08T14:01:49;2.25;;;1.00;;
59233;SDS011;60776;51.702;7.462;2023-10-08T14:04:19;1.73;;;0.93;;
59233;SDS011;60776;51.702;7.462;2023-10-08T14:06:52;4.22;;;1.27;;
59233;SDS011;60776;51.702;7.462;2023-10-08T14:09:22;2.90;;;1.10;;
59233;SDS011;60776;51.702;7.462;2023-10-08T14:11:56;2.30;;;1.30;;
59233;SDS011;60776;51.702;7.462;2023-10-08T14:14:24;5.03;;;1.77;;
59233;SDS011;60776;51.702;7.462;2023-10-08T14:16:54;5.28;;;1.25;;
59233;SDS011;60776;51.702;7.462;2023-10-08T14:19:25;3.25;;;2.05;;
59233;SDS011;60776;51.702;7.462;2023-10-08T14:22:11;1.95;;;1.48;;
59233;SDS011;60776;51.702;7.462;2023-10-08T14:24:44;2.83;;;1.30;;
59233;SDS011;60776;51.702;7.462;2023-10-08T14:27:18;2.67;;;1.30;;
59233;SDS011;60776;51.702;7.462;2023-10-08T14:29:50;3.42;;;1.30;;
59233;SDS011;60776;51.702;7.462;2023-10-08T14:32:19;3.72;;;1.20;;
59233;SDS011;60776;51.702;7.462;2023-10-08T14:34:52;2.55;;;1.30;;
59233;SDS011;60776;51.702;7.462;2023-10-08T14:37:21;2.88;;;1.23;;
59233;SDS011;60776;51.702;7.462;2023-10-08T14:40:08;2.40;;;1.17;;
59233;SDS011;60776;51.702;7.462;2023-10-08T14:42:53;2.47;;;1.40;;
59233;SDS011;60776;51.702;7.462;2023-10-08T14:45:28;3.05;;;1.23;;
59233;SDS011;60776;51.702;7.462;2023-10-08T14:48:00;3.15;;;1.20;;
59233;SDS011;60776;51.702;7.462;2023-10-08T14:50:26;5.03;;;1.40;;
59233;SDS011;60776;51.702;7.462;2023-10-08T14:53:07;3.00;;;1.30;;
59233;SDS011;60776;51.702;7.462;2023-10-08T14:55:36;3.75;;;1.30;;
59233;SDS011;60776;51.702;7.462;2023-10-08T14:58:09;4.80;;;1.50;;
59233;SDS011;60776;51.702;7.462;2023-10-08T15:00:38;2.38;;;1.27;;
59233;SDS011;60776;51.702;7.462;2023-10-08T15:03:04;3.15;;;1.23;;
59233;SDS011;60776;51.702;7.462;2023-10-08T15:05:30;1.38;;;1.20;;
59233;SDS011;60776;51.702;7.462;2023-10-08T15:07:56;2.72;;;1.20;;
59233;SDS011;60776;51.702;7.462;2023-10-08T15:10:22;3.22;;;1.50;;
59233;SDS011;60776;51.702;7.462;2023-10-08T15:12:48;3.33;;;1.48;;
59233;SDS011;60776;51.702;7.462;2023-10-08T15:15:19;1.52;;;1.00;;
59233;SDS011;60776;51.702;7.462;2023-10-08T15:17:54;3.95;;;1.25;;
59233;SDS011;60776;51.702;7.462;2023-10-08T15:20:20;2.30;;;1.05;;
59233;SDS011;60776;51.702;7.462;2023-10-08T15:23:00;3.08;;;1.35;;
59233;SDS011;60776;51.702;7.462;2023-10-08T15:25:26;4.03;;;1.52;;
59233;SDS011;60776;51.702;7.462;2023-10-08T15:27:52;2.47;;;1.00;;
59233;SDS011;60776;51.702;7.462;2023-10-08T15:30:25;2.40;;;1.33;;
59233;SDS011;60776;51.702;7.462;2023-10-08T15:32:53;2.65;;;1.10;;
59233;SDS011;60776;51.702;7.462;2023-10-08T15:35:19;2.15;;;1.42;;